sensor_id;sensor_type;location;lat;lon;timestamp;pressure;altitude;pressure_sealevel;temperature;humidity
12360;BME280;6244;51.460;7.090;2022-08-04T00:03:07;98249.19;;;19.49;68.82
12360;BME280;6244;51.460;7.090;2022-08-04T00:08:19;98240.91;;;19.52;68.69
12360;BME280;6244;51.460;7.090;2022-08-04T00:13:22;98249.34;;;19.55;68.92
12360;BME280;6244;51.460;7.090;2022-08-04T00:18:25;98249.22;;;19.65;72.22
12360;BME280;6244;51.460;7.090;2022-08-04T00:23:26;98244.00;;;19.97;74.11
12360;BME280;6244;51.460;7.090;2022-08-04T00:28:24;98240.50;;;19.89;71.66
12360;BME280;6244;51.460;7.090;2022-08-04T00:33:21;98235.28;;;19.71;70.24
12360;BME280;6244;51.460;7.090;2022-08-04T00:38:18;98237.75;;;19.56;69.24
12360;BME280;6244;51.460;7.090;2022-08-04T00:43:20;98226.72;;;19.43;69.05
12360;BME280;6244;51.460;7.090;2022-08-04T00:48:30;98232.09;;;19.26;69.50
12360;BME280;6244;51.460;7.090;2022-08-04T00:53:39;98221.13;;;19.21;70.25
12360;BME280;6244;51.460;7.090;2022-08-04T00:58:58;98220.78;;;19.16;70.16
12360;BME280;6244;51.460;7.090;2022-08-04T01:04:02;98216.97;;;19.18;70.18
12360;BME280;6244;51.460;7.090;2022-08-04T01:14:41;98219.84;;;18.99;69.01
12360;BME280;6244;51.460;7.090;2022-08-04T01:19:55;98212.81;;;18.90;68.10
12360;BME280;6244;51.460;7.090;2022-08-04T01:25:03;98210.63;;;18.86;68.26
12360;BME280;6244;51.460;7.090;2022-08-04T01:30:08;98208.28;;;18.83;68.19
12360;BME280;6244;51.460;7.090;2022-08-04T01:35:10;98198.53;;;18.83;68.42
12360;BME280;6244;51.460;7.090;2022-08-04T01:40:12;98192.53;;;18.81;68.22
12360;BME280;6244;51.460;7.090;2022-08-04T01:45:12;98181.56;;;18.76;67.96
12360;BME280;6244;51.460;7.090;2022-08-04T01:50:11;98181.19;;;18.71;67.82
12360;BME280;6244;51.460;7.090;2022-08-04T01:55:09;98179.44;;;18.37;67.15
12360;BME280;6244;51.460;7.090;2022-08-04T02:00:08;98176.03;;;18.27;67.07
12360;BME280;6244;51.460;7.090;2022-08-04T02:05:08;98159.00;;;18.29;67.16
12360;BME280;6244;51.460;7.090;2022-08-04T02:10:07;98155.88;;;18.34;67.38
12360;BME280;6244;51.460;7.090;2022-08-04T02:15:12;98138.28;;;18.33;67.50
12360;BME280;6244;51.460;7.090;2022-08-04T02:20:17;98142.09;;;18.30;67.54
12360;BME280;6244;51.460;7.090;2022-08-04T02:25:21;98143.91;;;18.30;67.49
12360;BME280;6244;51.460;7.090;2022-08-04T02:30:20;98139.84;;;18.18;67.12
12360;BME280;6244;51.460;7.090;2022-08-04T02:35:23;98133.56;;;18.19;67.11
12360;BME280;6244;51.460;7.090;2022-08-04T02:40:23;98135.84;;;18.14;66.94
12360;BME280;6244;51.460;7.090;2022-08-04T02:45:21;98126.63;;;18.00;67.21
12360;BME280;6244;51.460;7.090;2022-08-04T02:50:20;98123.06;;;17.91;67.28
12360;BME280;6244;51.460;7.090;2022-08-04T02:55:18;98125.97;;;17.80;67.47
12360;BME280;6244;51.460;7.090;2022-08-04T03:00:16;98118.31;;;17.77;67.49
12360;BME280;6244;51.460;7.090;2022-08-04T03:05:18;98115.66;;;17.60;67.73
12360;BME280;6244;51.460;7.090;2022-08-04T03:10:45;98121.56;;;17.71;67.54
12360;BME280;6244;51.460;7.090;2022-08-04T03:15:58;98109.09;;;17.64;67.77
12360;BME280;6244;51.460;7.090;2022-08-04T03:21:15;98102.66;;;17.49;67.67
12360;BME280;6244;51.460;7.090;2022-08-04T03:26:50;98100.31;;;17.46;67.63
12360;BME280;6244;51.460;7.090;2022-08-04T03:37:59;98104.25;;;17.59;67.51
12360;BME280;6244;51.460;7.090;2022-08-04T03:43:27;98106.19;;;17.57;67.65
12360;BME280;6244;51.460;7.090;2022-08-04T03:48:43;98098.09;;;17.59;67.66
12360;BME280;6244;51.460;7.090;2022-08-04T03:54:03;98100.97;;;17.48;67.88
12360;BME280;6244;51.460;7.090;2022-08-04T03:59:26;98102.03;;;17.55;67.70
12360;BME280;6244;51.460;7.090;2022-08-04T04:05:03;98089.78;;;17.71;67.59
12360;BME280;6244;51.460;7.090;2022-08-04T04:10:26;98093.84;;;17.83;67.69
12360;BME280;6244;51.460;7.090;2022-08-04T04:15:45;98083.59;;;17.63;67.54
12360;BME280;6244;51.460;7.090;2022-08-04T04:20:55;98088.50;;;17.58;67.71
12360;BME280;6244;51.460;7.090;2022-08-04T04:26:02;98084.22;;;17.30;67.83
12360;BME280;6244;51.460;7.090;2022-08-04T04:31:15;98089.34;;;17.31;68.26
12360;BME280;6244;51.460;7.090;2022-08-04T04:36:23;98091.84;;;17.33;68.64
12360;BME280;6244;51.460;7.090;2022-08-04T04:41:35;98092.25;;;17.38;69.03
12360;BME280;6244;51.460;7.090;2022-08-04T04:46:42;98090.59;;;17.54;68.54
12360;BME280;6244;51.460;7.090;2022-08-04T04:51:44;98091.88;;;17.68;68.58
12360;BME280;6244;51.460;7.090;2022-08-04T04:56:46;98097.88;;;17.52;68.63
12360;BME280;6244;51.460;7.090;2022-08-04T05:02:11;98095.22;;;17.52;68.91
12360;BME280;6244;51.460;7.090;2022-08-04T05:07:45;98096.38;;;17.67;68.95
12360;BME280;6244;51.460;7.090;2022-08-04T05:13:05;98101.94;;;17.82;69.03
12360;BME280;6244;51.460;7.090;2022-08-04T05:18:13;98106.88;;;17.94;68.72
12360;BME280;6244;51.460;7.090;2022-08-04T05:23:14;98096.91;;;17.96;68.77
12360;BME280;6244;51.460;7.090;2022-08-04T05:28:15;98104.41;;;18.01;68.93
12360;BME280;6244;51.460;7.090;2022-08-04T05:33:18;98101.06;;;18.17;68.54
12360;BME280;6244;51.460;7.090;2022-08-04T05:38:19;98099.97;;;18.27;68.73
12360;BME280;6244;51.460;7.090;2022-08-04T05:43:18;98101.63;;;18.28;68.19
12360;BME280;6244;51.460;7.090;2022-08-04T05:48:17;98099.81;;;18.46;67.84
12360;BME280;6244;51.460;7.090;2022-08-04T05:53:14;98103.00;;;18.58;68.29
12360;BME280;6244;51.460;7.090;2022-08-04T05:58:13;98102.09;;;18.75;68.20
12360;BME280;6244;51.460;7.090;2022-08-04T06:03:12;98102.53;;;18.96;67.88
12360;BME280;6244;51.460;7.090;2022-08-04T06:08:10;98106.56;;;19.16;68.03
12360;BME280;6244;51.460;7.090;2022-08-04T06:13:09;98104.19;;;19.38;68.81
12360;BME280;6244;51.460;7.090;2022-08-04T06:18:08;98106.19;;;19.60;68.83
12360;BME280;6244;51.460;7.090;2022-08-04T06:23:09;98104.56;;;19.84;68.77
12360;BME280;6244;51.460;7.090;2022-08-04T06:28:09;98110.88;;;19.99;69.03
12360;BME280;6244;51.460;7.090;2022-08-04T06:33:08;98104.03;;;20.12;69.42
12360;BME280;6244;51.460;7.090;2022-08-04T06:38:19;98110.22;;;20.37;69.42
12360;BME280;6244;51.460;7.090;2022-08-04T06:43:18;98108.97;;;20.63;71.30
12360;BME280;6244;51.460;7.090;2022-08-04T06:48:17;98117.38;;;20.91;71.10
12360;BME280;6244;51.460;7.090;2022-08-04T06:53:14;98109.13;;;21.16;73.46
12360;BME280;6244;51.460;7.090;2022-08-04T06:58:11;98114.59;;;21.54;80.17
12360;BME280;6244;51.460;7.090;2022-08-04T07:03:10;98123.81;;;21.96;84.71
12360;BME280;6244;51.460;7.090;2022-08-04T07:08:09;98121.41;;;22.24;82.79
12360;BME280;6244;51.460;7.090;2022-08-04T07:13:06;98122.34;;;22.53;87.52
12360;BME280;6244;51.460;7.090;2022-08-04T07:18:03;98119.31;;;22.85;83.47
12360;BME280;6244;51.460;7.090;2022-08-04T07:23:02;98112.56;;;23.19;80.79
12360;BME280;6244;51.460;7.090;2022-08-04T07:27:59;98121.78;;;23.66;79.96
12360;BME280;6244;51.460;7.090;2022-08-04T07:32:56;98126.53;;;24.06;78.29
12360;BME280;6244;51.460;7.090;2022-08-04T07:37:53;98129.53;;;24.45;77.12
12360;BME280;6244;51.460;7.090;2022-08-04T07:42:51;98132.75;;;24.62;76.22
12360;BME280;6244;51.460;7.090;2022-08-04T07:47:48;98141.25;;;25.00;76.46
12360;BME280;6244;51.460;7.090;2022-08-04T07:52:45;98137.59;;;25.48;73.34
12360;BME280;6244;51.460;7.090;2022-08-04T07:57:42;98146.16;;;25.71;68.10
12360;BME280;6244;51.460;7.090;2022-08-04T08:02:40;98151.97;;;25.87;68.87
12360;BME280;6244;51.460;7.090;2022-08-04T08:07:37;98158.22;;;26.01;66.02
12360;BME280;6244;51.460;7.090;2022-08-04T08:12:34;98153.53;;;26.42;64.92
12360;BME280;6244;51.460;7.090;2022-08-04T08:17:31;98155.53;;;27.12;59.31
12360;BME280;6244;51.460;7.090;2022-08-04T08:22:30;98156.13;;;28.15;55.99
12360;BME280;6244;51.460;7.090;2022-08-04T08:27:26;98185.00;;;30.85;44.36
12360;BME280;6244;51.460;7.090;2022-08-04T08:32:23;98200.41;;;33.33;39.16
12360;BME280;6244;51.460;7.090;2022-08-04T08:37:27;98207.94;;;34.07;35.67
12360;BME280;6244;51.460;7.090;2022-08-04T08:42:49;98221.19;;;35.10;32.00
12360;BME280;6244;51.460;7.090;2022-08-04T08:48:07;98227.63;;;37.74;28.10
12360;BME280;6244;51.460;7.090;2022-08-04T08:53:29;98243.66;;;39.26;26.18
12360;BME280;6244;51.460;7.090;2022-08-04T08:58:44;98228.03;;;38.06;25.99
12360;BME280;6244;51.460;7.090;2022-08-04T09:04:03;98218.13;;;36.96;27.49
12360;BME280;6244;51.460;7.090;2022-08-04T09:14:48;98202.13;;;34.25;30.47
12360;BME280;6244;51.460;7.090;2022-08-04T09:19:51;98196.38;;;33.95;32.27
12360;BME280;6244;51.460;7.090;2022-08-04T09:24:56;98210.69;;;35.28;30.55
12360;BME280;6244;51.460;7.090;2022-08-04T09:30:03;98210.59;;;35.50;30.06
12360;BME280;6244;51.460;7.090;2022-08-04T09:35:12;98220.28;;;36.64;28.34
12360;BME280;6244;51.460;7.090;2022-08-04T09:40:19;98220.31;;;37.09;29.42
12360;BME280;6244;51.460;7.090;2022-08-04T09:45:26;98226.63;;;38.19;27.62
12360;BME280;6244;51.460;7.090;2022-08-04T09:50:33;98226.22;;;35.69;29.63
12360;BME280;6244;51.460;7.090;2022-08-04T09:55:40;98232.81;;;36.35;28.48
12360;BME280;6244;51.460;7.090;2022-08-04T10:00:45;98233.38;;;35.80;29.71
12360;BME280;6244;51.460;7.090;2022-08-04T10:05:54;98211.88;;;32.52;33.87
12360;BME280;6244;51.460;7.090;2022-08-04T10:11:01;98204.06;;;31.60;39.01
12360;BME280;6244;51.460;7.090;2022-08-04T10:16:10;98218.56;;;33.65;33.43
12360;BME280;6244;51.460;7.090;2022-08-04T10:21:18;98238.09;;;35.43;30.19
12360;BME280;6244;51.460;7.090;2022-08-04T10:26:26;98245.19;;;35.91;29.21
12360;BME280;6244;51.460;7.090;2022-08-04T10:31:29;98251.81;;;36.15;29.42
12360;BME280;6244;51.460;7.090;2022-08-04T10:36:32;98241.47;;;36.17;28.34
12360;BME280;6244;51.460;7.090;2022-08-04T10:41:41;98228.19;;;33.01;33.30
12360;BME280;6244;51.460;7.090;2022-08-04T10:46:46;98219.00;;;31.04;38.56
12360;BME280;6244;51.460;7.090;2022-08-04T10:51:47;98200.94;;;30.23;41.55
12360;BME280;6244;51.460;7.090;2022-08-04T10:56:49;98208.97;;;30.29;42.46
12360;BME280;6244;51.460;7.090;2022-08-04T11:01:51;98214.41;;;29.93;44.53
12360;BME280;6244;51.460;7.090;2022-08-04T11:06:51;98213.69;;;30.75;42.19
12360;BME280;6244;51.460;7.090;2022-08-04T11:11:53;98225.13;;;31.00;41.35
12360;BME280;6244;51.460;7.090;2022-08-04T11:16:55;98236.75;;;32.21;37.83
12360;BME280;6244;51.460;7.090;2022-08-04T11:21:55;98232.19;;;32.10;37.75
12360;BME280;6244;51.460;7.090;2022-08-04T11:26:57;98227.09;;;30.81;39.95
12360;BME280;6244;51.460;7.090;2022-08-04T11:31:58;98219.97;;;30.57;42.78
12360;BME280;6244;51.460;7.090;2022-08-04T11:37:02;98225.41;;;30.69;42.69
12360;BME280;6244;51.460;7.090;2022-08-04T11:42:06;98226.88;;;30.83;41.72
12360;BME280;6244;51.460;7.090;2022-08-04T11:47:13;98240.63;;;30.81;42.20
12360;BME280;6244;51.460;7.090;2022-08-04T11:52:16;98235.75;;;29.83;42.56
12360;BME280;6244;51.460;7.090;2022-08-04T11:57:14;98246.31;;;29.30;45.40
12360;BME280;6244;51.460;7.090;2022-08-04T12:02:27;98232.50;;;28.96;46.16
12360;BME280;6244;51.460;7.090;2022-08-04T12:07:37;98247.09;;;29.13;44.57
12360;BME280;6244;51.460;7.090;2022-08-04T12:12:40;98242.00;;;28.74;49.03
12360;BME280;6244;51.460;7.090;2022-08-04T12:17:42;98250.06;;;28.49;49.68
12360;BME280;6244;51.460;7.090;2022-08-04T12:22:47;98251.06;;;28.17;51.99
12360;BME280;6244;51.460;7.090;2022-08-04T12:27:52;98244.59;;;28.62;53.18
12360;BME280;6244;51.460;7.090;2022-08-04T12:32:58;98244.41;;;28.57;50.56
12360;BME280;6244;51.460;7.090;2022-08-04T12:38:02;98243.13;;;28.60;51.19
12360;BME280;6244;51.460;7.090;2022-08-04T12:43:05;98238.25;;;28.50;50.05
12360;BME280;6244;51.460;7.090;2022-08-04T12:48:06;98232.91;;;29.17;49.91
12360;BME280;6244;51.460;7.090;2022-08-04T12:53:11;98254.75;;;29.34;49.22
12360;BME280;6244;51.460;7.090;2022-08-04T12:58:14;98237.03;;;28.71;54.66
12360;BME280;6244;51.460;7.090;2022-08-04T13:03:14;98244.50;;;28.38;60.79
12360;BME280;6244;51.460;7.090;2022-08-04T13:08:12;98247.78;;;28.77;61.57
12360;BME280;6244;51.460;7.090;2022-08-04T13:13:15;98257.38;;;29.65;60.11
12360;BME280;6244;51.460;7.090;2022-08-04T13:18:13;98264.56;;;30.25;56.49
12360;BME280;6244;51.460;7.090;2022-08-04T13:23:13;98250.00;;;30.08;56.35
12360;BME280;6244;51.460;7.090;2022-08-04T13:28:13;98255.25;;;30.03;55.96
12360;BME280;6244;51.460;7.090;2022-08-04T13:33:10;98248.84;;;30.34;56.22
12360;BME280;6244;51.460;7.090;2022-08-04T13:38:10;98244.69;;;30.02;55.66
12360;BME280;6244;51.460;7.090;2022-08-04T13:43:10;98237.72;;;29.76;57.64
12360;BME280;6244;51.460;7.090;2022-08-04T13:48:09;98236.91;;;29.75;57.72
12360;BME280;6244;51.460;7.090;2022-08-04T13:53:08;98233.50;;;29.80;58.39
12360;BME280;6244;51.460;7.090;2022-08-04T13:58:08;98229.06;;;29.86;57.18
12360;BME280;6244;51.460;7.090;2022-08-04T14:03:06;98222.41;;;29.88;54.43
12360;BME280;6244;51.460;7.090;2022-08-04T14:08:07;98229.66;;;29.51;56.12
12360;BME280;6244;51.460;7.090;2022-08-04T14:13:06;98231.25;;;29.59;55.44
12360;BME280;6244;51.460;7.090;2022-08-04T14:18:16;98220.66;;;29.39;53.96
12360;BME280;6244;51.460;7.090;2022-08-04T14:23:13;98223.31;;;29.46;61.23
12360;BME280;6244;51.460;7.090;2022-08-04T14:28:11;98227.31;;;28.94;53.32
12360;BME280;6244;51.460;7.090;2022-08-04T14:33:10;98217.88;;;28.54;56.92
12360;BME280;6244;51.460;7.090;2022-08-04T14:38:08;98212.50;;;28.17;55.12
12360;BME280;6244;51.460;7.090;2022-08-04T14:43:06;98215.38;;;27.77;58.15
12360;BME280;6244;51.460;7.090;2022-08-04T14:48:08;98202.16;;;27.69;63.32
12360;BME280;6244;51.460;7.090;2022-08-04T14:53:07;98195.84;;;27.38;63.32
12360;BME280;6244;51.460;7.090;2022-08-04T14:58:04;98209.34;;;27.18;63.51
12360;BME280;6244;51.460;7.090;2022-08-04T15:03:03;98204.38;;;27.02;62.49
12360;BME280;6244;51.460;7.090;2022-08-04T15:08:02;98197.56;;;26.93;63.38
12360;BME280;6244;51.460;7.090;2022-08-04T15:13:00;98198.00;;;26.84;63.32
12360;BME280;6244;51.460;7.090;2022-08-04T15:17:58;98193.88;;;26.68;62.82
12360;BME280;6244;51.460;7.090;2022-08-04T15:22:54;98190.09;;;26.49;64.51
12360;BME280;6244;51.460;7.090;2022-08-04T15:27:52;98183.06;;;26.35;64.56
12360;BME280;6244;51.460;7.090;2022-08-04T15:32:52;98191.13;;;26.29;66.97
12360;BME280;6244;51.460;7.090;2022-08-04T15:37:53;98200.88;;;26.43;67.10
12360;BME280;6244;51.460;7.090;2022-08-04T15:43:09;98200.25;;;26.54;67.47
12360;BME280;6244;51.460;7.090;2022-08-04T15:48:32;98213.88;;;26.52;67.80
12360;BME280;6244;51.460;7.090;2022-08-04T15:53:30;98214.88;;;26.25;68.36
12360;BME280;6244;51.460;7.090;2022-08-04T15:58:47;98209.00;;;25.89;68.50
12360;BME280;6244;51.460;7.090;2022-08-04T16:03:45;98214.53;;;25.75;68.54
12360;BME280;6244;51.460;7.090;2022-08-04T16:08:56;98215.69;;;25.66;68.52
12360;BME280;6244;51.460;7.090;2022-08-04T16:14:08;98206.56;;;25.54;68.51
12360;BME280;6244;51.460;7.090;2022-08-04T16:19:06;98209.66;;;25.51;68.54
12360;BME280;6244;51.460;7.090;2022-08-04T16:24:19;98206.50;;;25.41;68.74
12360;BME280;6244;51.460;7.090;2022-08-04T16:29:36;98218.50;;;25.45;68.31
12360;BME280;6244;51.460;7.090;2022-08-04T16:34:34;98204.59;;;25.75;68.24
12360;BME280;6244;51.460;7.090;2022-08-04T16:39:32;98206.09;;;26.64;66.15
12360;BME280;6244;51.460;7.090;2022-08-04T16:44:29;98208.50;;;27.18;65.10
12360;BME280;6244;51.460;7.090;2022-08-04T16:49:29;98208.94;;;27.28;65.92
12360;BME280;6244;51.460;7.090;2022-08-04T16:54:28;98207.66;;;27.24;65.72
12360;BME280;6244;51.460;7.090;2022-08-04T16:59:25;98214.50;;;27.07;65.78
12360;BME280;6244;51.460;7.090;2022-08-04T17:04:29;98200.69;;;26.77;67.13
12360;BME280;6244;51.460;7.090;2022-08-04T17:09:27;98207.88;;;26.57;67.72
12360;BME280;6244;51.460;7.090;2022-08-04T17:14:26;98208.13;;;26.49;68.06
12360;BME280;6244;51.460;7.090;2022-08-04T17:19:23;98217.16;;;26.15;68.39
12360;BME280;6244;51.460;7.090;2022-08-04T17:24:21;98205.91;;;25.92;68.25
12360;BME280;6244;51.460;7.090;2022-08-04T17:29:17;98205.88;;;25.79;68.44
12360;BME280;6244;51.460;7.090;2022-08-04T17:34:14;98207.97;;;25.43;68.02
12360;BME280;6244;51.460;7.090;2022-08-04T17:39:17;98211.63;;;25.02;67.17
12360;BME280;6244;51.460;7.090;2022-08-04T17:44:16;98216.00;;;24.60;66.16
12360;BME280;6244;51.460;7.090;2022-08-04T17:49:19;98209.91;;;24.45;64.49
12360;BME280;6244;51.460;7.090;2022-08-04T17:54:19;98201.56;;;24.34;63.23
12360;BME280;6244;51.460;7.090;2022-08-04T17:59:19;98196.25;;;24.19;63.61
12360;BME280;6244;51.460;7.090;2022-08-04T18:04:25;98221.13;;;24.13;62.50
12360;BME280;6244;51.460;7.090;2022-08-04T18:09:23;98209.72;;;24.05;63.21
12360;BME280;6244;51.460;7.090;2022-08-04T18:14:21;98217.84;;;23.97;63.56
12360;BME280;6244;51.460;7.090;2022-08-04T18:19:18;98221.81;;;23.86;63.03
12360;BME280;6244;51.460;7.090;2022-08-04T18:24:15;98234.19;;;23.87;63.29
12360;BME280;6244;51.460;7.090;2022-08-04T18:29:12;98231.16;;;23.76;61.46
12360;BME280;6244;51.460;7.090;2022-08-04T18:34:10;98229.53;;;23.60;60.13
12360;BME280;6244;51.460;7.090;2022-08-04T18:39:06;98229.09;;;23.42;57.38
12360;BME280;6244;51.460;7.090;2022-08-04T18:44:03;98217.84;;;23.32;56.95
12360;BME280;6244;51.460;7.090;2022-08-04T18:49:00;98229.63;;;23.23;57.88
12360;BME280;6244;51.460;7.090;2022-08-04T18:53:58;98236.72;;;23.16;56.16
12360;BME280;6244;51.460;7.090;2022-08-04T18:58:54;98235.44;;;23.12;55.70
12360;BME280;6244;51.460;7.090;2022-08-04T19:03:51;98230.63;;;22.93;55.21
12360;BME280;6244;51.460;7.090;2022-08-04T19:08:47;98238.41;;;22.80;54.01
12360;BME280;6244;51.460;7.090;2022-08-04T19:13:46;98235.47;;;22.75;54.33
12360;BME280;6244;51.460;7.090;2022-08-04T19:18:42;98236.72;;;22.64;52.68
12360;BME280;6244;51.460;7.090;2022-08-04T19:23:39;98233.28;;;22.56;52.41
12360;BME280;6244;51.460;7.090;2022-08-04T19:28:35;98236.00;;;22.48;51.83
12360;BME280;6244;51.460;7.090;2022-08-04T19:33:34;98243.13;;;22.33;51.45
12360;BME280;6244;51.460;7.090;2022-08-04T19:38:31;98241.88;;;22.21;51.27
12360;BME280;6244;51.460;7.090;2022-08-04T19:43:28;98258.25;;;22.18;50.26
12360;BME280;6244;51.460;7.090;2022-08-04T19:48:25;98263.94;;;22.15;50.74
12360;BME280;6244;51.460;7.090;2022-08-04T19:53:23;98265.31;;;22.11;50.79
12360;BME280;6244;51.460;7.090;2022-08-04T19:58:20;98263.38;;;21.97;49.69
12360;BME280;6244;51.460;7.090;2022-08-04T20:03:18;98265.38;;;21.95;49.96
12360;BME280;6244;51.460;7.090;2022-08-04T20:08:14;98273.91;;;21.90;49.49
12360;BME280;6244;51.460;7.090;2022-08-04T20:13:13;98263.31;;;21.82;49.84
12360;BME280;6244;51.460;7.090;2022-08-04T20:18:09;98269.78;;;21.80;49.03
12360;BME280;6244;51.460;7.090;2022-08-04T20:23:06;98279.66;;;21.71;49.02
12360;BME280;6244;51.460;7.090;2022-08-04T20:28:03;98286.69;;;21.64;49.31
12360;BME280;6244;51.460;7.090;2022-08-04T20:33:01;98286.38;;;21.59;49.51
12360;BME280;6244;51.460;7.090;2022-08-04T20:37:58;98300.56;;;21.43;50.24
12360;BME280;6244;51.460;7.090;2022-08-04T20:42:55;98295.47;;;21.26;50.48
12360;BME280;6244;51.460;7.090;2022-08-04T20:47:52;98304.66;;;21.15;51.43
12360;BME280;6244;51.460;7.090;2022-08-04T20:52:49;98301.00;;;21.08;52.59
12360;BME280;6244;51.460;7.090;2022-08-04T20:57:46;98303.19;;;20.97;52.73
12360;BME280;6244;51.460;7.090;2022-08-04T21:02:42;98307.81;;;20.87;52.75
12360;BME280;6244;51.460;7.090;2022-08-04T21:07:39;98315.97;;;20.85;52.88
12360;BME280;6244;51.460;7.090;2022-08-04T21:12:37;98321.97;;;20.87;53.05
12360;BME280;6244;51.460;7.090;2022-08-04T21:17:34;98329.81;;;20.97;52.89
12360;BME280;6244;51.460;7.090;2022-08-04T21:22:30;98340.59;;;20.87;52.94
12360;BME280;6244;51.460;7.090;2022-08-04T21:27:27;98363.56;;;20.72;53.89
12360;BME280;6244;51.460;7.090;2022-08-04T21:32:25;98380.53;;;20.63;55.58
12360;BME280;6244;51.460;7.090;2022-08-04T21:37:22;98399.84;;;20.65;56.41
12360;BME280;6244;51.460;7.090;2022-08-04T21:42:18;98415.94;;;20.56;59.18
12360;BME280;6244;51.460;7.090;2022-08-04T21:47:15;98411.25;;;20.42;58.48
12360;BME280;6244;51.460;7.090;2022-08-04T21:52:13;98421.56;;;20.45;59.07
12360;BME280;6244;51.460;7.090;2022-08-04T21:57:09;98423.41;;;20.44;58.30
12360;BME280;6244;51.460;7.090;2022-08-04T22:02:06;98419.38;;;20.32;59.84
12360;BME280;6244;51.460;7.090;2022-08-04T22:07:02;98414.72;;;20.26;59.98
12360;BME280;6244;51.460;7.090;2022-08-04T22:12:00;98410.03;;;20.20;59.87
12360;BME280;6244;51.460;7.090;2022-08-04T22:16:57;98403.59;;;20.31;59.05
12360;BME280;6244;51.460;7.090;2022-08-04T22:21:53;98409.22;;;20.28;60.12
12360;BME280;6244;51.460;7.090;2022-08-04T22:26:50;98425.84;;;20.22;56.58
12360;BME280;6244;51.460;7.090;2022-08-04T22:31:48;98445.28;;;20.22;58.44
12360;BME280;6244;51.460;7.090;2022-08-04T22:36:44;98476.56;;;20.20;58.46
12360;BME280;6244;51.460;7.090;2022-08-04T22:41:41;98464.03;;;20.13;58.38
12360;BME280;6244;51.460;7.090;2022-08-04T22:46:37;98448.47;;;20.00;56.34
12360;BME280;6244;51.460;7.090;2022-08-04T22:51:35;98432.44;;;19.84;57.32
12360;BME280;6244;51.460;7.090;2022-08-04T22:56:32;98398.63;;;20.02;55.31
12360;BME280;6244;51.460;7.090;2022-08-04T23:01:28;98345.19;;;19.88;52.26
12360;BME280;6244;51.460;7.090;2022-08-04T23:06:25;98335.88;;;19.50;50.31
12360;BME280;6244;51.460;7.090;2022-08-04T23:11:23;98363.75;;;19.20;51.21
12360;BME280;6244;51.460;7.090;2022-08-04T23:16:20;98344.53;;;18.66;52.77
12360;BME280;6244;51.460;7.090;2022-08-04T23:21:16;98297.16;;;18.96;53.53
12360;BME280;6244;51.460;7.090;2022-08-04T23:26:13;98254.31;;;18.66;55.30
12360;BME280;6244;51.460;7.090;2022-08-04T23:31:12;98242.78;;;18.57;56.07
12360;BME280;6244;51.460;7.090;2022-08-04T23:36:08;98240.09;;;18.49;57.06
12360;BME280;6244;51.460;7.090;2022-08-04T23:41:05;98223.44;;;18.65;57.55
12360;BME280;6244;51.460;7.090;2022-08-04T23:46:02;98218.75;;;18.59;57.05
12360;BME280;6244;51.460;7.090;2022-08-04T23:51:04;98230.84;;;18.53;57.23
12360;BME280;6244;51.460;7.090;2022-08-04T23:56:05;98225.59;;;18.61;57.36
